Terminal Aerodrome Forecast
Issued by NWS

Current Version | Previous Version | Graphics & Text | Print | Product List | Glossary On
Versions: 1 2 3 4 5 6 7 8 9 10 11 12 13 14 15 16 17 18 19 20 21 22 23 24
000
FTUS41 KILN 280000 AAA
TAFLUK
TAF AMD
KLUK 280032Z 2801/2824 30010KT P6SM SCT040 BKN080
     FM280200 30012G22KT P6SM SCT050
     FM280300 30010KT P6SM FEW040
     FM280900 30008KT P6SM SCT015
     FM281500 31011KT P6SM BKN025
     FM281700 32011G19KT P6SM -SHRA BKN035
     FM282300 32010KT P6SM BKN035=

USA.gov is the U.S. government's official web portal to all federal, state and local government web resources and services.